Résultats

Le LUCUS BACCHUS
33,5 KM - RELAIS à 3. Édition 2022.

33.5 Km
16/10/2022 à 08:30:00 - Le Luc-en-Provence (83)
39 arrivant(e)s.


 
Les autres classements de cet évènement




Place▲ Temps Dossard Nom Prenom Categ #Categ Sexe #Sexe ClubVit Moy Relais 1Relais 2Relais 3 Diplôme Partager
1 02:26:35 884 TAGLIOFERRI JEROME HOM 1 M 1 COURTFOREST13.71 00:46:3300:49:1400:49:14
1 02:26:35 885 MOURRET PIERRE HOM 1 M 1 COURTFOREST13.71 00:46:3300:49:1400:49:14
1 02:26:35 883 RICHERMOZ DAVID HOM 1 M 1 COURTFOREST13.71 00:46:3300:49:1400:49:14
2 02:32:25 889 DELANGLE LUDOVIC HOM 2 M 2 TRAIL RUN LUCOIS 113.19 00:46:5100:51:3800:51:38
2 02:32:25 890 DAVID ERIC HOM 2 M 2 TRAIL RUN LUCOIS 113.19 00:46:5100:51:3800:51:38
2 02:32:25 891 TACHOT VINCENT HOM 2 M 2 TRAIL RUN LUCOIS 113.19 00:46:5100:51:3800:51:38
3 02:40:59 888 GUILLAUME NICOLAS HOM 3 M 3 LES SOIFFARDS12.49 00:50:4900:47:2000:47:20
3 02:40:59 886 GUILLEMOT CLEMENT HOM 3 M 3 LES SOIFFARDS12.49 00:50:4900:47:2000:47:20
3 02:40:59 887 BORNARD BENOIT HOM 3 M 3 LES SOIFFARDS12.49 00:50:4900:47:2000:47:20
4 03:08:47 879 BONNAN CHRISTOPHE HOM 4 M 4 CAC10.65 00:54:4501:00:0001:00:00
4 03:08:47 878 SALINAS SEBASTIEN HOM 4 M 4 CAC10.65 00:54:4501:00:0001:00:00
4 03:08:47 877 DORNET NICOLAS HOM 4 M 4 CAC10.65 00:54:4501:00:0001:00:00
5 03:09:46 909 LAURENTI XAVIER HOM 5 M 5 ANAVIER10.59 00:53:4200:59:2300:59:23
5 03:09:46 908 DEGOUVE-DE-NUNCQUE AMAURY HOM 5 M 5 ANAVIER10.59 00:53:4200:59:2300:59:23
5 03:09:46 907 DEGOUVE-DE-NUNCQUE ANASTASE HOM 5 M 5 ANAVIER10.59 00:53:4200:59:2300:59:23
6 03:09:55 876 NIVIERE MARIE MIX 1 F 1 NIV'RUN10.58 00:57:0500:57:4300:57:43
6 03:09:55 875 NIVIERE BAPTISTE MIX 1 M 1 NIV'RUN10.58 00:57:0500:57:4300:57:43
6 03:09:55 874 NIVIERE CAROLINE MIX 1 F 1 NIV'RUN10.58 00:57:0500:57:4300:57:43
7 03:11:38 881 ZANETTI JEAN-DANIEL MIX 2 M 2 TRIO BTL10.49 00:56:3000:59:2400:59:24
7 03:11:38 882 GUERRERO FABIENNE MIX 2 F 2 TRIO BTL10.49 00:56:3000:59:2400:59:24
7 03:11:38 880 GARNIER SAMUEL MIX 2 M 2 TRIO BTL10.49 00:56:3000:59:2400:59:24
8 03:11:51 898 COULMAIN ALAIN MIX 3 M 3 TRAIL RUN LUCOIS 410.48 00:58:4300:57:1400:57:14
8 03:11:51 900 PELLEN ELISE MIX 3 F 3 TRAIL RUN LUCOIS 410.48 00:58:4300:57:1400:57:14
8 03:11:51 899 GILLET JEAN-YVES MIX 3 M 3 TRAIL RUN LUCOIS 410.48 00:58:4300:57:1400:57:14
9 03:16:16 895 MICHEL DAVID MIX 4 M 4 TRAIL RUN LUCOIS 310.24 00:59:4601:02:4201:02:42
9 03:16:16 896 DAVID GEOFFREY MIX 4 M 4 TRAIL RUN LUCOIS 310.24 00:59:4601:02:4201:02:42
9 03:16:16 897 ANFEROVA IULIIA MIX 4 F 4 TRAIL RUN LUCOIS 310.24 00:59:4601:02:4201:02:42
10 03:16:17 873 LE-JOLIFF ROLAND HOM 6 M 6 ISSA10.24 00:59:4600:54:5200:54:52
10 03:16:17 872 MOLINARI BASTIEN HOM 6 M 6 ISSA10.24 00:59:4600:54:5200:54:52
10 03:16:17 871 PEROTTO REGIS HOM 6 M 6 ISSA10.24 00:59:4600:54:5200:54:52
11 03:16:39 902 LANG LOUISETTE MIX 5 F 5 LES BTL10.22 00:57:5901:00:3801:00:38
11 03:16:39 903 JACQUELINE RAVASSARD MIX 5 F 5 LES BTL10.22 00:57:5901:00:3801:00:38
11 03:16:39 901 GARNIER FABRICE MIX 5 M 5 LES BTL10.22 00:57:5901:00:3801:00:38
12 03:27:08 892 FRANCONIERI REBECCA FEM 1 F 1 TRAIL RUN LUCOIS 29.70 01:06:4701:07:2101:07:21
12 03:27:08 893 COMONT CHARLOTTE FEM 1 F 1 TRAIL RUN LUCOIS 29.70 01:06:4701:07:2101:07:21
12 03:27:08 894 DUTILLEUL ISABELLE FEM 1 F 1 TRAIL RUN LUCOIS 29.70 01:06:4701:07:2101:07:21
13 03:49:31 904 LACHERY THOMAS MIX 6 M 6 TEAM EXPLORER CCCV8.76 01:01:0301:24:3901:24:39
13 03:49:31 905 SIMON YANNICK MIX 6 M 6 TEAM EXPLORER CCCV8.76 01:01:0301:24:3901:24:39
13 03:49:31 906 SEDDOUR FARIZA MIX 6 F 6 TEAM EXPLORER CCCV8.76 01:01:0301:24:3901:24:39